F17

Center Municipal Airport

Center, Texas, USA
METAR KF17 220255Z AUTO 00000KT 7SM CLR 23/23 A3000 RMK AO2 T02330225
Observed Flight Rules
Sep-22 @ 02:55 UTC (29 minutes ago) Visual Flight Rules
Visibility Clouds
7 miles
Temperatures Readings
Current 23°C / 73°F
Dewpoint 23°C / 73°F
Humidity 100%
Altimeter 30" Hg
Pressure 1016 hPa
Elevation 97
METAR KF17 220255Z AUTO 00000KT 7SM CLR 23/23 A3000 RMK AO2 T02330225
Observed Flight Rules
Sep-22 @ 02:55 UTC
(29 minutes ago)
VFR
Clouds
Temperature Dewpoint
23°C / 73°F 23°C / 73°F
Humidity Altimeter Pressure
100% 30" Hg 1016 hPa